Time;durP1;ratioP1;P1;durP2;ratioP2;P2;SDS_P1;SDS_P2;PMS_P1;PMS_P2;Temp;Humidity;BMP_temperature;BMP_pressure;BME280_temperature;BME280_humidity;BME280_pressure;Samples;Min_cycle;Max_cycle;Signal;HPM_P1;HPM_P2
2022/06/16 00:01:36;;;;;;;5.50;4.10;;;;;;;16.59;62.30;101746.06;5041037;28;20071;-81
2022/06/16 00:04:02;;;;;;;8.33;4.40;;;;;;;16.56;62.57;101755.56;5025774;28;20040;-81
2022/06/16 00:06:27;;;;;;;8.33;4.37;;;;;;;16.42;62.34;101752.19;5042586;28;20051;-82
2022/06/16 00:08:53;;;;;;;8.47;4.67;;;;;;;16.40;62.86;101748.84;5043113;28;20060;-82
2022/06/16 00:11:21;;;;;;;7.80;4.50;;;;;;;16.30;62.74;101746.63;5028796;28;20056;-82
2022/06/16 00:13:48;;;;;;;8.77;4.47;;;;;;;16.32;62.77;101744.50;5043097;28;20037;-82
2022/06/16 00:16:14;;;;;;;7.13;4.73;;;;;;;16.34;63.20;101753.31;5042625;28;20064;-81
2022/06/16 00:18:40;;;;;;;7.70;4.57;;;;;;;16.44;61.86;101752.78;5042620;28;20044;-81
2022/06/16 00:21:07;;;;;;;5.43;4.40;;;;;;;16.43;61.80;101742.06;5043088;28;20414;-81
2022/06/16 00:23:32;;;;;;;6.93;4.40;;;;;;;16.44;62.47;101752.78;5025432;28;20049;-81
2022/06/16 00:25:58;;;;;;;6.33;4.47;;;;;;;16.45;62.76;101740.78;5042638;28;20041;-82
2022/06/16 00:28:24;;;;;;;8.47;4.70;;;;;;;16.48;62.31;101753.16;5042166;28;20041;-81
2022/06/16 00:30:49;;;;;;;8.30;4.53;;;;;;;16.41;62.70;101760.63;5042783;28;20128;-81
2022/06/16 00:33:15;;;;;;;8.07;4.50;;;;;;;16.42;62.16;101756.81;5042371;28;20041;-82
2022/06/16 00:35:41;;;;;;;8.80;4.30;;;;;;;16.38;62.27;101757.25;5041890;28;20124;-81
2022/06/16 00:38:06;;;;;;;6.73;4.47;;;;;;;16.43;62.22;101755.72;5025101;28;20630;-81
2022/06/16 00:40:31;;;;;;;8.77;4.80;;;;;;;16.42;62.30;101759.56;5041382;28;20560;-81
2022/06/16 00:42:57;;;;;;;9.20;4.77;;;;;;;16.36;62.20;101751.19;5041218;28;20560;-82
2022/06/16 00:45:55;;;;;;;10.03;4.77;;;;;;;16.46;62.43;101766.25;5024561;28;20120;-81
2022/06/16 00:48:20;;;;;;;5.50;4.40;;;;;;;16.42;62.05;101765.03;5042767;28;20029;-81
2022/06/16 00:51:03;;;;;;;6.07;4.40;;;;;;;16.42;61.79;101770.50;5042417;28;20079;-82
2022/06/16 00:53:29;;;;;;;6.00;4.07;;;;;;;16.30;61.70;101754.00;5041813;28;20554;-82
2022/06/16 00:55:55;;;;;;;9.83;4.57;;;;;;;16.40;61.71;101772.59;5042454;28;20111;-81
2022/06/16 00:58:22;;;;;;;10.10;4.80;;;;;;;16.23;62.23;101756.81;5042082;28;20033;-80
2022/06/16 01:00:50;;;;;;;8.83;4.77;;;;;;;16.20;62.98;101773.69;5042230;28;20351;-82
2022/06/16 01:06:19;;;;;;;8.53;4.70;;;;;;;16.20;62.69;101765.47;5018037;28;20041;-81
2022/06/16 01:08:47;;;;;;;8.90;5.13;;;;;;;16.15;63.53;101768.88;5040806;28;20049;-81
2022/06/16 01:13:41;;;;;;;10.23;4.63;;;;;;;16.14;62.86;101769.97;5027418;28;20039;-82
2022/06/16 01:14:29;;;;;;;6.83;4.33;;;;;;;16.08;62.90;101768.13;5042377;28;20131;-82
2022/06/16 01:17:01;;;;;;;7.33;4.50;;;;;;;16.09;62.52;101772.53;5022515;28;20086;-82
2022/06/16 01:19:50;;;;;;;8.57;4.87;;;;;;;16.05;62.05;101771.31;5041734;28;20027;-80
2022/06/16 01:22:25;;;;;;;8.40;4.97;;;;;;;16.04;62.42;101783.31;5040093;28;20030;-81
2022/06/16 01:25:09;;;;;;;7.17;4.67;;;;;;;16.02;62.51;101788.19;5042036;28;20020;-81
2022/06/16 01:27:52;;;;;;;7.85;5.32;;;;;;;15.95;63.67;101795.56;5041207;28;20032;-82
2022/06/16 01:30:28;;;;;;;7.87;5.60;;;;;;;15.88;63.85;101798.38;5042017;28;20029;-83
2022/06/16 01:33:12;;;;;;;9.43;5.47;;;;;;;15.92;63.52;101796.84;5041307;28;20261;-81
2022/06/16 01:36:13;;;;;;;8.70;5.57;;;;;;;15.91;63.20;101808.88;5041173;28;20589;-81
2022/06/16 01:38:47;;;;;;;8.37;5.57;;;;;;;15.74;65.11;101807.72;5006799;28;20045;-81
2022/06/16 01:41:42;;;;;;;9.53;5.67;;;;;;;15.73;64.31;101800.59;5041917;28;20036;-82
2022/06/16 01:44:09;;;;;;;8.18;5.22;;;;;;;15.67;64.74;101808.59;5042224;28;20483;-83
2022/06/16 01:46:39;;;;;;;8.90;5.57;;;;;;;15.57;65.07;101802.81;5040846;28;20404;-82
2022/06/16 01:49:18;;;;;;;10.30;6.13;;;;;;;15.59;64.75;101803.41;5042424;28;20158;-82
2022/06/16 01:51:52;;;;;;;12.07;6.67;;;;;;;15.42;65.90;101805.88;5023258;28;20599;-81
2022/06/16 01:54:23;;;;;;;10.98;6.35;;;;;;;15.46;65.16;101804.38;5041280;28;20648;-81
2022/06/16 01:56:56;;;;;;;9.23;6.00;;;;;;;15.35;65.96;101796.88;5041262;28;20075;-82
2022/06/16 01:59:32;;;;;;;10.03;6.03;;;;;;;15.32;66.06;101797.31;5042044;28;20606;-80
2022/06/16 02:02:07;;;;;;;8.57;6.03;;;;;;;15.30;66.02;101800.28;5040575;28;20093;-81
2022/06/16 02:04:38;;;;;;;9.73;6.33;;;;;;;15.27;65.63;101798.00;5041380;28;20029;-82
2022/06/16 02:07:09;;;;;;;8.27;6.30;;;;;;;15.14;66.35;101798.06;5040203;28;20098;-82
2022/06/16 02:09:41;;;;;;;11.60;6.63;;;;;;;14.97;66.52;101795.00;5041639;28;20496;-82
2022/06/16 02:12:55;;;;;;;7.43;6.17;;;;;;;14.90;65.79;101792.28;5041098;28;20091;-81
2022/06/16 02:14:59;;;;;;;12.23;6.47;;;;;;;14.79;66.53;101784.81;5040531;28;20084;-81
2022/06/16 02:17:24;;;;;;;10.60;6.10;;;;;;;14.77;66.76;101798.66;5038969;28;20079;-82
2022/06/16 02:19:49;;;;;;;11.30;5.93;;;;;;;14.71;67.99;101794.06;5041532;28;20029;-82
2022/06/16 02:22:15;;;;;;;10.40;5.70;;;;;;;14.72;68.05;101803.09;5041697;28;20040;-82
2022/06/16 02:24:40;;;;;;;8.27;5.70;;;;;;;14.55;68.25;101799.97;5041288;28;20040;-82
2022/06/16 02:27:06;;;;;;;9.43;6.40;;;;;;;14.28;70.49;101798.16;5040659;28;20070;-82
2022/06/16 02:29:38;;;;;;;10.93;6.50;;;;;;;14.35;70.57;101804.44;5042509;28;20079;-82
2022/06/16 02:32:19;;;;;;;10.67;6.10;;;;;;;14.44;68.81;101817.84;5026706;28;20466;-82
2022/06/16 02:34:50;;;;;;;10.30;6.30;;;;;;;14.32;68.87;101802.16;5045534;28;20149;-81
2022/06/16 02:37:23;;;;;;;9.40;6.60;;;;;;;14.37;68.85;101826.03;5045115;28;20036;-82
2022/06/16 02:40:24;;;;;;;8.63;6.72;;;;;;;14.33;68.79;101831.09;5045239;28;20056;-81
2022/06/16 02:43:04;;;;;;;15.10;7.30;;;;;;;14.10;71.19;101849.75;5044684;28;20036;-81
2022/06/16 02:45:48;;;;;;;14.00;7.40;;;;;;;13.90;72.77;101847.91;5044522;28;20039;-81
2022/06/16 02:48:35;;;;;;;11.13;7.30;;;;;;;13.95;73.86;101849.97;5043775;28;20040;-82
2022/06/16 02:51:13;;;;;;;11.43;6.97;;;;;;;13.93;71.59;101844.75;5045285;28;20039;-81
2022/06/16 02:56:27;;;;;;;;;;;;;;;14.07;68.91;101848.28;5045238;28;20072;-82
2022/06/16 02:58:57;;;;;;;10.37;6.87;;;;;;;13.94;70.94;101862.78;5043161;28;20015;-81
2022/06/16 03:01:24;;;;;;;11.67;7.77;;;;;;;13.82;71.71;101857.09;5044495;28;20069;-81
2022/06/16 03:04:11;;;;;;;10.83;7.27;;;;;;;13.88;71.28;101860.03;5044893;28;20048;-81
2022/06/16 03:06:37;;;;;;;11.73;7.57;;;;;;;13.66;73.11;101862.97;5044180;28;20085;-82
2022/06/16 03:09:04;;;;;;;12.33;7.63;;;;;;;13.60;74.02;101861.06;5013780;28;20136;-81
2022/06/16 03:11:31;;;;;;;10.80;7.37;;;;;;;13.44;74.48;101854.97;5044447;28;20044;-81
2022/06/16 03:13:56;;;;;;;11.30;7.60;;;;;;;13.38;74.66;101855.81;5044299;28;20202;-81
2022/06/16 03:16:22;;;;;;;14.43;8.00;;;;;;;13.39;74.87;101846.56;5044003;28;20041;-81
2022/06/16 03:18:49;;;;;;;11.87;8.30;;;;;;;13.28;75.16;101852.59;5044295;28;20045;-81
2022/06/16 03:21:14;;;;;;;11.23;7.50;;;;;;;13.24;75.32;101854.03;5043981;28;20036;-81
2022/06/16 03:23:39;;;;;;;8.63;7.20;;;;;;;13.16;74.96;101849.63;5025697;28;20615;-81
2022/06/16 03:26:05;;;;;;;13.90;8.13;;;;;;;13.06;74.73;101852.72;5043567;28;20095;-82
2022/06/16 03:28:30;;;;;;;9.90;7.97;;;;;;;13.07;74.80;101853.56;5044213;28;20128;-82
2022/06/16 03:30:56;;;;;;;12.13;8.20;;;;;;;12.96;75.17;101842.22;5042836;28;20087;-82
2022/06/16 03:33:21;;;;;;;10.00;7.70;;;;;;;12.96;75.65;101844.09;5043288;28;20060;-82
2022/06/16 03:35:47;;;;;;;13.07;8.30;;;;;;;13.00;76.49;101850.81;5044600;28;20028;-81
2022/06/16 03:38:31;;;;;;;14.13;8.87;;;;;;;13.07;76.09;101853.56;5043687;28;20683;-81
2022/06/16 03:40:57;;;;;;;14.80;8.98;;;;;;;13.11;75.59;101860.25;5025364;28;20473;-81
2022/06/16 03:43:23;;;;;;;15.50;9.10;;;;;;;13.05;76.31;101870.09;5042675;28;20040;-82
2022/06/16 03:45:49;;;;;;;16.93;9.07;;;;;;;13.06;75.61;101876.38;5043741;28;20435;-81
2022/06/16 03:48:14;;;;;;;14.10;8.33;;;;;;;13.07;74.96;101878.03;5043936;28;20700;-81
2022/06/16 03:50:40;;;;;;;13.57;9.27;;;;;;;12.98;76.55;101886.38;5012911;28;20084;-81
2022/06/16 03:53:06;;;;;;;16.07;9.33;;;;;;;12.97;75.56;101898.31;5041738;28;20038;-81
2022/06/16 03:55:31;;;;;;;16.23;8.97;;;;;;;12.98;75.17;101894.53;5043777;28;20048;-81
2022/06/16 03:57:57;;;;;;;16.90;8.87;;;;;;;13.01;74.38;101898.75;5043202;28;20051;-81
2022/06/16 04:00:24;;;;;;;12.53;8.53;;;;;;;13.04;73.74;101892.91;5043610;28;20082;-82
2022/06/16 04:03:59;;;;;;;13.03;8.77;;;;;;;13.02;74.17;101902.31;5041994;28;20044;-81
2022/06/16 04:05:37;;;;;;;15.63;8.90;;;;;;;13.08;74.12;101899.63;5042673;28;20204;-82
2022/06/16 04:08:02;;;;;;;16.07;8.50;;;;;;;13.11;73.73;101895.63;5043207;28;20057;-80
2022/06/16 04:10:28;;;;;;;16.30;9.17;;;;;;;13.09;73.87;101901.28;5043548;28;20032;-81
2022/06/16 04:12:53;;;;;;;14.17;8.70;;;;;;;13.15;73.68;101899.63;5042962;28;20044;-81
2022/06/16 04:15:19;;;;;;;16.97;8.43;;;;;;;13.14;73.59;101897.97;5044072;28;20060;-81
2022/06/16 04:17:44;;;;;;;13.13;8.87;;;;;;;13.23;73.48;101913.09;5042571;28;20051;-81
2022/06/16 04:20:13;;;;;;;13.60;8.73;;;;;;;13.22;73.87;101905.97;5043322;28;20052;-80
2022/06/16 04:22:39;;;;;;;13.53;8.77;;;;;;;13.28;73.81;101907.84;5042740;28;20623;-81
2022/06/16 04:25:07;;;;;;;13.50;8.60;;;;;;;13.33;75.10;101909.97;5043085;28;20037;-83
2022/06/16 04:27:33;;;;;;;13.40;9.60;;;;;;;13.15;74.10;101899.63;5042620;28;20037;-81
2022/06/16 04:29:58;;;;;;;15.47;9.67;;;;;;;13.24;74.89;101905.75;5029093;28;20041;-81
2022/06/16 04:32:24;;;;;;;16.07;9.73;;;;;;;13.20;74.66;101905.31;5043000;28;20040;-82
2022/06/16 04:34:49;;;;;;;14.37;9.47;;;;;;;13.27;74.34;101916.22;5042162;28;20033;-81
2022/06/16 04:37:14;;;;;;;12.30;9.97;;;;;;;13.23;75.41;101917.66;5042780;28;20131;-81
2022/06/16 04:39:40;;;;;;;14.53;10.07;;;;;;;13.31;75.07;101921.06;5028152;28;20494;-81
2022/06/16 04:42:06;;;;;;;16.70;10.17;;;;;;;13.27;76.01;101924.38;5042726;28;20037;-82
2022/06/16 04:44:33;;;;;;;13.20;9.27;;;;;;;13.31;75.07;101931.97;5042376;28;20037;-81
2022/06/16 04:46:59;;;;;;;15.43;9.50;;;;;;;13.33;75.17;101929.84;5043421;28;20462;-82
2022/06/16 04:49:24;;;;;;;13.47;9.23;;;;;;;13.45;74.46;101932.00;5042000;28;20040;-83
2022/06/16 04:51:50;;;;;;;13.73;9.50;;;;;;;13.44;75.09;101935.81;5041743;28;20477;-81
2022/06/16 04:54:16;;;;;;;16.03;9.10;;;;;;;13.44;74.51;101938.53;5042186;28;20037;-81
2022/06/16 04:56:41;;;;;;;11.77;8.30;;;;;;;13.46;74.05;101931.84;5042031;28;20164;-82
2022/06/16 04:59:06;;;;;;;13.70;9.40;;;;;;;13.54;74.67;101944.41;5026891;28;20070;-82
2022/06/16 05:01:32;;;;;;;12.83;8.87;;;;;;;13.57;74.09;101946.75;5042550;28;20055;-83
2022/06/16 05:03:57;;;;;;;14.47;8.20;;;;;;;13.59;74.16;101933.75;5040515;28;20029;-82
2022/06/16 05:06:22;;;;;;;13.87;8.37;;;;;;;13.65;73.79;101956.59;5042414;28;20385;-81
2022/06/16 05:08:48;;;;;;;14.63;8.93;;;;;;;13.75;74.13;101958.91;5039385;28;20063;-82
2022/06/16 05:11:14;;;;;;;15.13;9.13;;;;;;;13.82;73.87;101954.34;5040262;28;20124;-83
2022/06/16 05:13:40;;;;;;;14.37;8.80;;;;;;;13.77;73.44;101951.38;5039663;28;20133;-81
2022/06/16 05:16:05;;;;;;;11.73;8.43;;;;;;;13.83;72.31;101954.13;5038618;28;20033;-81
2022/06/16 05:18:31;;;;;;;13.03;7.70;;;;;;;13.94;71.63;101974.47;5039047;28;20059;-81
2022/06/16 05:21:14;;;;;;;13.13;8.27;;;;;;;14.02;71.58;101977.00;5040264;28;20133;-81
2022/06/16 05:23:40;;;;;;;14.57;7.73;;;;;;;14.09;71.59;101987.06;5039285;28;20044;-80
2022/06/16 05:26:07;;;;;;;13.03;7.60;;;;;;;14.21;71.22;101985.44;5038071;28;20123;-81
2022/06/16 05:28:33;;;;;;;12.17;7.67;;;;;;;14.25;70.13;101989.41;5041340;28;20133;-81
2022/06/16 05:30:59;;;;;;;11.23;8.13;;;;;;;14.37;71.44;101988.78;5041695;28;20044;-81
2022/06/16 05:33:24;;;;;;;9.33;7.00;;;;;;;14.44;70.11;101990.47;5041393;28;20032;-80
2022/06/16 05:36:00;;;;;;;10.30;7.30;;;;;;;14.53;70.07;101993.81;5041585;28;20063;-81
2022/06/16 05:38:26;;;;;;;10.37;7.13;;;;;;;14.61;69.84;101996.31;5025808;28;20156;-80
2022/06/16 05:41:07;;;;;;;10.23;6.27;;;;;;;14.74;69.18;101995.53;5041271;28;20037;-81
2022/06/16 05:43:33;;;;;;;9.53;6.00;;;;;;;14.89;68.23;102003.47;5044823;28;20561;-81
2022/06/16 05:45:59;;;;;;;9.10;5.70;;;;;;;14.91;67.20;102003.25;5041058;28;20029;-79
2022/06/16 05:48:25;;;;;;;11.00;6.47;;;;;;;15.02;66.82;102008.06;5040116;28;20401;-80
2022/06/16 05:50:51;;;;;;;10.43;6.10;;;;;;;15.12;66.20;102013.06;5041100;28;20037;-80
2022/06/16 05:53:17;;;;;;;7.57;5.70;;;;;;;15.19;65.81;102011.19;5041064;28;21359;-80
2022/06/16 05:55:43;;;;;;;9.73;6.00;;;;;;;15.18;65.50;102007.59;5041188;28;20937;-79
2022/06/16 05:58:08;;;;;;;9.67;6.27;;;;;;;15.18;65.13;102017.69;5022598;28;20448;-79
2022/06/16 06:00:34;;;;;;;13.53;6.50;;;;;;;15.27;65.28;102016.41;5041453;28;20047;-82
2022/06/16 06:03:01;;;;;;;11.03;5.60;;;;;;;15.30;64.90;102013.25;5055118;28;20033;-79
2022/06/16 06:05:28;;;;;;;10.43;5.77;;;;;;;15.39;64.56;102013.00;5050817;28;20053;-80
2022/06/16 06:19:24;;;;;;;8.43;4.70;;;;;;;15.85;60.65;102021.00;4972159;28;20046;-80
2022/06/16 06:22:17;;;;;;;9.03;4.47;;;;;;;15.94;61.25;102023.47;4972735;28;20062;-79
2022/06/16 06:25:00;;;;;;;8.43;4.40;;;;;;;16.08;58.44;102018.81;5016036;28;20059;-79
2022/06/16 06:27:32;;;;;;;6.87;4.27;;;;;;;16.24;60.75;102022.88;5032700;28;20075;-79
2022/06/16 06:29:59;;;;;;;6.10;4.27;;;;;;;16.18;58.06;102028.19;5055081;28;20059;-79
2022/06/16 06:32:25;;;;;;;7.67;3.93;;;;;;;16.26;58.54;102012.56;5055765;28;20048;-80
2022/06/16 06:34:51;;;;;;;5.60;3.67;;;;;;;16.45;58.43;102029.88;5050410;28;20465;-80
2022/06/16 06:37:20;;;;;;;4.50;3.60;;;;;;;16.54;57.74;102029.38;5051925;28;20057;-80
2022/06/16 06:39:46;;;;;;;5.53;3.40;;;;;;;16.60;57.00;102024.91;5060233;28;20028;-79
2022/06/16 06:42:11;;;;;;;7.17;3.70;;;;;;;16.53;56.96;102013.19;5040546;28;20369;-80
2022/06/16 06:44:37;;;;;;;7.13;3.60;;;;;;;16.76;56.39;102034.47;5066544;28;20044;-80
2022/06/16 06:47:04;;;;;;;4.90;3.20;;;;;;;16.80;54.59;102029.41;5060475;28;20480;-80
2022/06/16 06:49:29;;;;;;;7.23;3.30;;;;;;;17.02;56.05;102027.91;5050834;28;20048;-79
2022/06/16 06:51:54;;;;;;;6.93;3.37;;;;;;;16.99;54.60;102036.59;5032731;28;20385;-80
2022/06/16 06:54:20;;;;;;;8.50;3.23;;;;;;;17.09;55.53;102043.47;5051758;28;20122;-80
2022/06/16 06:56:47;;;;;;;7.67;3.53;;;;;;;17.10;54.58;102043.22;5057787;28;20024;-80
2022/06/16 06:59:16;;;;;;;7.13;2.90;;;;;;;17.23;54.00;102047.75;5062689;28;20025;-80
2022/06/16 07:01:42;;;;;;;4.07;2.87;;;;;;;17.21;54.77;102058.91;5032871;28;20032;-80
2022/06/16 07:04:07;;;;;;;4.73;3.00;;;;;;;17.36;53.10;102050.31;5035397;28;20058;-79
2022/06/16 07:06:33;;;;;;;3.57;2.40;;;;;;;17.33;51.59;102066.38;5052147;28;20037;-79
2022/06/16 07:08:58;;;;;;;5.43;2.40;;;;;;;17.38;52.54;102056.41;5034001;28;20067;-79
2022/06/16 07:11:24;;;;;;;4.53;2.57;;;;;;;17.57;53.06;102064.66;5052079;28;20402;-80
2022/06/16 07:13:50;;;;;;;3.57;2.43;;;;;;;17.72;52.90;102059.59;5053827;28;20708;-79
2022/06/16 07:16:15;;;;;;;5.07;2.57;;;;;;;17.85;51.34;102063.22;5054164;28;20029;-79
2022/06/16 07:18:41;;;;;;;7.03;2.80;;;;;;;17.98;53.24;102067.75;5055304;28;20098;-80
2022/06/16 07:21:06;;;;;;;5.73;2.40;;;;;;;18.18;53.45;102067.44;5063441;28;20106;-81
2022/06/16 07:23:32;;;;;;;3.77;2.30;;;;;;;18.29;52.45;102077.66;5055550;28;20045;-80
2022/06/16 07:25:58;;;;;;;6.10;2.47;;;;;;;18.36;50.49;102080.28;5058386;28;20028;-80
2022/06/16 07:28:25;;;;;;;3.83;2.13;;;;;;;18.39;50.46;102077.91;5053382;28;20032;-79
2022/06/16 07:30:50;;;;;;;5.37;2.20;;;;;;;18.42;50.97;102086.75;5053724;28;20021;-80
2022/06/16 07:33:16;;;;;;;4.67;2.30;;;;;;;18.45;50.39;102081.59;5053916;28;20037;-79
2022/06/16 07:35:43;;;;;;;3.63;2.30;;;;;;;18.48;48.99;102083.91;5053955;28;20512;-80
2022/06/16 07:38:10;;;;;;;3.43;2.17;;;;;;;18.59;50.57;102095.97;5054948;28;20024;-79
2022/06/16 07:40:36;;;;;;;5.00;2.20;;;;;;;18.69;50.52;102101.72;5055801;28;20040;-80
2022/06/16 07:43:01;;;;;;;6.73;2.50;;;;;;;18.82;49.82;102097.06;5053544;28;20373;-80
2022/06/16 07:45:30;;;;;;;3.53;2.20;;;;;;;18.85;50.29;102110.34;5065734;28;20381;-80
2022/06/16 07:48:00;;;;;;;4.90;2.40;;;;;;;19.10;48.46;102112.06;5053731;28;20029;-79
2022/06/16 07:50:26;;;;;;;3.53;2.35;;;;;;;19.02;49.62;102114.06;5054255;28;20028;-79
2022/06/16 07:52:51;;;;;;;4.33;2.10;;;;;;;19.06;49.20;102107.03;5057879;28;20473;-79
2022/06/16 07:55:18;;;;;;;3.38;2.10;;;;;;;19.06;47.22;102115.25;5035449;28;20136;-79
2022/06/16 07:57:47;;;;;;;3.40;1.75;;;;;;;18.88;46.57;102121.72;5058329;28;20490;-79
2022/06/16 08:00:16;;;;;;;5.93;2.10;;;;;;;19.14;48.17;102127.00;5032260;28;20106;-80
2022/06/16 08:02:42;;;;;;;7.00;2.13;;;;;;;19.34;49.46;102119.22;5028664;28;20032;-80
2022/06/16 08:05:12;;;;;;;5.45;2.20;;;;;;;19.22;47.81;102123.88;5052372;28;20048;-81
2022/06/16 08:07:39;;;;;;;5.70;2.40;;;;;;;19.35;46.10;102128.28;5044867;28;20083;-79
2022/06/16 08:10:07;;;;;;;3.65;2.20;;;;;;;19.53;47.25;102130.91;5044891;28;20041;-80
2022/06/16 08:12:34;;;;;;;5.90;2.30;;;;;;;19.69;46.40;102126.59;5042925;28;20075;-81
2022/06/16 08:15:00;;;;;;;6.13;2.38;;;;;;;19.88;47.48;102130.06;5041147;28;20457;-80
2022/06/16 08:17:31;;;;;;;4.15;2.22;;;;;;;20.15;47.90;102136.91;5011294;28;20041;-81
2022/06/16 08:19:57;;;;;;;6.85;2.20;;;;;;;20.41;50.81;102139.06;5041399;28;20232;-81
2022/06/16 08:22:23;;;;;;;4.88;2.40;;;;;;;20.19;46.15;102138.06;5041234;28;20487;-82
2022/06/16 08:24:48;;;;;;;5.22;2.40;;;;;;;20.44;46.51;102143.25;5041460;28;20503;-81
2022/06/16 08:27:17;;;;;;;4.22;2.47;;;;;;;20.32;44.95;102135.03;5040008;28;20036;-82
2022/06/16 08:29:44;;;;;;;5.78;2.30;;;;;;;20.69;46.67;102142.88;5041846;28;20044;-80
2022/06/16 08:32:10;;;;;;;4.97;2.60;;;;;;;20.50;42.58;102146.94;5042204;28;20033;-81
2022/06/16 08:34:36;;;;;;;4.28;2.50;;;;;;;20.90;46.49;102151.50;5040296;28;20047;-82
2022/06/16 08:37:02;;;;;;;6.80;2.35;;;;;;;21.36;47.00;102151.41;5040139;28;20582;-80
2022/06/16 08:39:27;;;;;;;4.68;2.40;;;;;;;21.25;43.01;102144.88;5041185;28;20033;-82
2022/06/16 08:42:17;;;;;;;4.45;2.10;;;;;;;21.81;44.07;102141.28;5039914;28;20508;-82
2022/06/16 08:45:26;;;;;;;5.00;2.40;;;;;;;22.50;43.88;102134.38;5010562;28;20049;-81
2022/06/16 08:48:07;;;;;;;5.05;2.30;;;;;;;22.88;41.60;102126.97;4977961;28;20041;-81
2022/06/16 08:50:36;;;;;;;3.60;2.28;;;;;;;23.17;41.73;102118.34;4977702;28;20046;-81
2022/06/16 08:53:20;;;;;;;6.03;2.58;;;;;;;23.45;42.84;102119.91;5014600;28;20136;-82
2022/06/16 08:56:03;;;;;;;6.25;2.45;;;;;;;23.19;42.56;102121.72;5040440;28;20044;-82
2022/06/16 08:58:37;;;;;;;4.32;2.30;;;;;;;23.34;39.94;102127.31;5040959;28;20405;-82
2022/06/16 09:01:12;;;;;;;4.30;2.20;;;;;;;23.89;40.08;102135.38;5040086;28;20048;-80
2022/06/16 09:03:50;;;;;;;4.55;2.33;;;;;;;24.18;38.42;102145.97;5041845;28;20041;-82
2022/06/16 09:06:25;;;;;;;5.65;2.30;;;;;;;24.54;39.87;102157.97;5041442;28;20060;-82
2022/06/16 09:09:05;;;;;;;4.88;2.40;;;;;;;24.85;39.09;102165.53;5041936;28;20464;-80
2022/06/16 09:11:50;;;;;;;6.35;2.70;;;;;;;24.68;35.11;102166.59;5040745;28;20072;-82
2022/06/16 09:17:33;;;;;;;4.65;2.30;;;;;;;25.41;37.34;102159.94;5040890;28;20051;-82
2022/06/16 09:20:01;;;;;;;3.55;2.38;;;;;;;25.20;37.67;102172.13;5039387;28;20384;-82
2022/06/16 09:22:47;;;;;;;4.57;2.35;;;;;;;25.66;38.81;102185.94;5039490;28;20028;-82
2022/06/16 09:25:43;;;;;;;5.18;2.70;;;;;;;25.84;36.98;102175.34;5039489;28;20487;-81
2022/06/16 09:28:28;;;;;;;6.57;2.30;;;;;;;25.94;37.19;102176.13;5041194;28;20029;-82
2022/06/16 09:30:59;;;;;;;4.97;2.55;;;;;;;26.07;34.96;102185.84;5021817;28;20852;-82
2022/06/16 09:33:37;;;;;;;6.43;2.60;;;;;;;26.35;36.10;102175.13;5040576;28;20028;-83
2022/06/16 09:36:07;;;;;;;4.80;2.30;;;;;;;26.24;32.37;102179.09;5039994;28;20039;-83
2022/06/16 09:38:48;;;;;;;5.00;2.50;;;;;;;26.93;37.37;102176.44;5040086;28;20028;-82
2022/06/16 09:44:09;;;;;;;4.20;2.70;;;;;;;26.81;35.18;102189.88;5050712;28;20063;-82
2022/06/16 09:46:41;;;;;;;5.00;2.30;;;;;;;27.07;34.79;102169.06;5050408;28;20477;-82
2022/06/16 09:49:13;;;;;;;4.28;2.70;;;;;;;27.27;34.61;102179.16;5051935;28;20021;-82
2022/06/16 09:51:46;;;;;;;6.50;3.15;;;;;;;27.38;32.89;102174.38;5051881;28;20021;-83
2022/06/16 09:54:20;;;;;;;5.50;2.42;;;;;;;27.59;35.35;102166.63;5052107;28;20068;-82
2022/06/16 09:57:47;;;;;;;8.63;2.67;;;;;;;28.32;34.21;102182.44;5051331;28;20526;-82
2022/06/16 10:00:18;;;;;;;6.15;2.70;;;;;;;27.70;34.34;102172.91;4987764;28;20121;-82
2022/06/16 10:02:55;;;;;;;5.40;2.80;;;;;;;27.97;35.69;102179.81;5056170;28;20032;-82
2022/06/16 10:05:42;;;;;;;5.60;2.50;;;;;;;28.27;33.06;102183.34;5059289;28;20460;-82
2022/06/16 10:08:21;;;;;;;6.53;2.70;;;;;;;27.81;33.04;102179.16;5052594;28;20024;-80
2022/06/16 10:10:55;;;;;;;5.22;2.53;;;;;;;27.91;34.61;102181.00;5049783;28;20170;-82
2022/06/16 10:13:35;;;;;;;8.77;2.90;;;;;;;28.27;32.43;102191.69;5049998;28;20369;-82
2022/06/16 10:16:11;;;;;;;7.10;3.22;;;;;;;28.20;31.72;102191.25;5048201;28;20045;-82
2022/06/16 10:18:36;;;;;;;6.75;2.63;;;;;;;28.27;32.09;102177.75;5052803;28;20029;-82
2022/06/16 10:21:07;;;;;;;6.25;2.72;;;;;;;27.92;31.08;102177.06;5039609;28;20043;-83
2022/06/16 10:23:42;;;;;;;3.42;2.17;;;;;;;28.49;35.50;102174.38;5023230;28;20116;-81
2022/06/16 10:26:09;;;;;;;3.97;2.28;;;;;;;28.44;33.67;102177.25;5039503;28;20037;-81
2022/06/16 10:28:44;;;;;;;6.72;2.50;;;;;;;28.97;35.81;102176.97;5039501;28;20037;-83
2022/06/16 10:31:16;;;;;;;6.55;2.83;;;;;;;28.57;33.49;102170.06;5040215;28;20047;-81
2022/06/16 10:33:56;;;;;;;5.63;2.65;;;;;;;28.89;32.39;102182.44;5037865;28;20087;-82
2022/06/16 10:36:25;;;;;;;6.25;2.60;;;;;;;27.57;32.36;102174.44;5051358;28;20032;-80
2022/06/16 10:39:19;;;;;;;5.93;2.45;;;;;;;28.44;34.19;102177.25;5057844;28;20031;-82
2022/06/16 10:42:10;;;;;;;4.45;2.20;;;;;;;28.71;33.38;102176.59;5053758;28;20116;-82
2022/06/16 10:44:38;;;;;;;4.20;2.55;;;;;;;27.62;34.28;102173.53;5042300;28;20033;-81
2022/06/16 10:47:07;;;;;;;5.90;2.55;;;;;;;27.99;33.39;102177.56;5054919;28;20469;-82
2022/06/16 10:49:39;;;;;;;7.82;2.83;;;;;;;27.96;32.79;102183.72;5057252;28;20029;-81
2022/06/16 10:52:11;;;;;;;5.38;2.50;;;;;;;28.68;33.97;102193.09;5055703;28;20028;-81
2022/06/16 10:55:16;;;;;;;6.75;2.53;;;;;;;28.68;33.52;102198.66;5055612;28;20024;-82
2022/06/16 10:57:46;;;;;;;4.80;2.50;;;;;;;28.50;34.77;102186.38;5022398;28;20037;-81
2022/06/16 11:00:21;;;;;;;7.40;2.40;;;;;;;28.80;32.42;102188.72;5053652;28;20033;-82
2022/06/16 11:03:04;;;;;;;7.65;2.30;;;;;;;28.80;31.81;102202.66;5060404;28;20029;-82
2022/06/16 11:05:34;;;;;;;5.18;2.53;;;;;;;27.99;31.23;102188.72;5062059;28;20033;-81
2022/06/16 11:08:12;;;;;;;4.15;2.40;;;;;;;28.03;34.31;102177.81;5053920;28;20065;-81
2022/06/16 11:10:40;;;;;;;10.20;2.72;;;;;;;28.24;35.61;102172.78;5055017;28;20123;-81
2022/06/16 11:13:13;;;;;;;4.05;2.50;;;;;;;28.77;31.69;102186.50;5055342;28;20021;-82
2022/06/16 11:15:41;;;;;;;5.20;2.60;;;;;;;28.41;31.33;102183.41;5056913;28;20420;-82
2022/06/16 11:18:15;;;;;;;4.03;2.58;;;;;;;28.17;30.60;102189.06;5070568;28;20033;-82
2022/06/16 11:20:44;;;;;;;5.05;2.70;;;;;;;28.63;34.23;102191.19;5052652;28;20056;-81
2022/06/16 11:23:21;;;;;;;8.70;2.78;;;;;;;28.89;33.66;102177.66;5055987;28;20484;-81
2022/06/16 11:25:53;;;;;;;4.78;2.55;;;;;;;29.07;33.32;102181.53;5056742;28;20033;-81
2022/06/16 11:28:23;;;;;;;4.82;2.90;;;;;;;29.07;31.48;102175.16;5056465;28;20088;-82
2022/06/16 11:30:48;;;;;;;6.90;3.08;;;;;;;28.84;32.71;102172.16;5054035;28;20025;-81
2022/06/16 11:36:35;;;;;;;5.43;3.00;;;;;;;28.85;32.03;102170.22;5070680;28;20512;-81
2022/06/16 11:39:28;;;;;;;6.53;2.72;;;;;;;29.37;32.79;102176.56;5053282;28;20044;-81
2022/06/16 11:41:55;;;;;;;6.50;2.87;;;;;;;28.80;30.57;102174.75;5053220;28;20035;-82
2022/06/16 11:44:40;;;;;;;5.45;2.53;;;;;;;28.98;33.55;102172.22;5054977;28;20364;-81
2022/06/16 11:47:09;;;;;;;4.15;2.60;;;;;;;28.79;31.39;102173.09;5054958;28;20449;-81
2022/06/16 11:49:41;;;;;;;6.65;2.75;;;;;;;27.98;30.86;102164.75;5037798;28;20029;-82
2022/06/16 11:52:22;;;;;;;4.05;2.40;;;;;;;28.66;30.84;102171.09;5054469;28;20099;-82
2022/06/16 11:55:24;;;;;;;6.03;2.75;;;;;;;28.88;32.12;102164.03;5055638;28;20028;-81
2022/06/16 11:57:56;;;;;;;6.50;2.53;;;;;;;28.88;32.27;102164.03;5057365;28;20033;-80
2022/06/16 12:00:30;;;;;;;3.97;2.50;;;;;;;28.52;30.46;102181.28;5045104;28;20143;-82
2022/06/16 12:03:07;;;;;;;4.65;2.33;;;;;;;28.61;29.63;102171.13;5045722;28;20041;-82
2022/06/16 12:05:45;;;;;;;5.85;2.60;;;;;;;29.07;35.35;102172.34;5057746;28;20111;-82
2022/06/16 12:08:20;;;;;;;7.20;2.75;;;;;;;28.85;31.23;102178.59;5049103;28;20045;-84